Wabasha, Minnesota
Current Conditions -  °F | °C
As of 12:11 AM on Sunday 26 Oct 2014 (Local Time) from KRGK Reporting Station
NA  
Wind Chill: 36°   Ceiling: NA
Heat Index: 36°   Visibility: 10mi
Dew Point: 28°   Wind: 0mph
Humidity: 75%   Direction: NA
Pressure: 30.04"   Gusts: NA
Location:  44.38°N, 92.04°W
Report Text: KRGK 260511Z AUTO 00000KT 10SM 02/M02 A3004 RMK AO2
Loading
Personal Weather Stations






























Interactive Weather Map New forecast layout! Learn more

10-Day Weather Forecast

Advertisements
Track Severe Weather on mobile